sensor_id;sensor_type;location;lat;lon;timestamp;P1;durP1;ratioP1;P2;durP2;ratioP2
40717;SDS011;26405;51.850;-2.246;2023-03-04T00:00:23;17.67;;;8.05;;
40717;SDS011;26405;51.850;-2.246;2023-03-04T00:02:48;18.45;;;8.13;;
40717;SDS011;26405;51.850;-2.246;2023-03-04T00:05:13;17.95;;;8.20;;
40717;SDS011;26405;51.850;-2.246;2023-03-04T00:07:39;24.65;;;11.52;;
40717;SDS011;26405;51.850;-2.246;2023-03-04T00:10:04;20.15;;;8.57;;
40717;SDS011;26405;51.850;-2.246;2023-03-04T00:12:30;19.20;;;8.95;;
40717;SDS011;26405;51.850;-2.246;2023-03-04T00:14:55;18.08;;;8.45;;
40717;SDS011;26405;51.850;-2.246;2023-03-04T00:17:20;17.90;;;8.30;;
40717;SDS011;26405;51.850;-2.246;2023-03-04T00:19:46;17.70;;;8.00;;
40717;SDS011;26405;51.850;-2.246;2023-03-04T00:22:11;18.20;;;8.25;;
40717;SDS011;26405;51.850;-2.246;2023-03-04T00:24:36;20.67;;;8.13;;
40717;SDS011;26405;51.850;-2.246;2023-03-04T00:27:01;17.30;;;7.82;;
40717;SDS011;26405;51.850;-2.246;2023-03-04T00:29:27;18.27;;;8.68;;
40717;SDS011;26405;51.850;-2.246;2023-03-04T00:31:52;20.55;;;9.75;;
40717;SDS011;26405;51.850;-2.246;2023-03-04T00:34:17;19.05;;;9.07;;
40717;SDS011;26405;51.850;-2.246;2023-03-04T00:36:42;16.35;;;7.63;;
40717;SDS011;26405;51.850;-2.246;2023-03-04T00:39:09;18.67;;;7.75;;
40717;SDS011;26405;51.850;-2.246;2023-03-04T00:41:34;16.77;;;7.93;;
40717;SDS011;26405;51.850;-2.246;2023-03-04T00:43:59;17.58;;;7.53;;
40717;SDS011;26405;51.850;-2.246;2023-03-04T00:46:24;16.67;;;7.28;;
40717;SDS011;26405;51.850;-2.246;2023-03-04T00:48:50;17.80;;;7.03;;
40717;SDS011;26405;51.850;-2.246;2023-03-04T00:51:15;18.15;;;8.30;;
40717;SDS011;26405;51.850;-2.246;2023-03-04T00:53:40;18.00;;;7.60;;
40717;SDS011;26405;51.850;-2.246;2023-03-04T00:56:06;17.70;;;7.93;;
40717;SDS011;26405;51.850;-2.246;2023-03-04T00:58:31;16.27;;;7.15;;
40717;SDS011;26405;51.850;-2.246;2023-03-04T01:00:56;18.42;;;8.30;;
40717;SDS011;26405;51.850;-2.246;2023-03-04T01:03:21;19.08;;;8.73;;
40717;SDS011;26405;51.850;-2.246;2023-03-04T01:05:48;19.15;;;9.05;;
40717;SDS011;26405;51.850;-2.246;2023-03-04T01:08:13;20.55;;;8.77;;
40717;SDS011;26405;51.850;-2.246;2023-03-04T01:10:39;18.63;;;8.45;;
40717;SDS011;26405;51.850;-2.246;2023-03-04T01:13:04;19.40;;;8.70;;
40717;SDS011;26405;51.850;-2.246;2023-03-04T01:15:29;20.15;;;8.10;;
40717;SDS011;26405;51.850;-2.246;2023-03-04T01:17:55;20.77;;;8.70;;
40717;SDS011;26405;51.850;-2.246;2023-03-04T01:20:20;19.83;;;8.90;;
40717;SDS011;26405;51.850;-2.246;2023-03-04T01:22:45;19.17;;;8.13;;
40717;SDS011;26405;51.850;-2.246;2023-03-04T01:25:11;21.60;;;10.20;;
40717;SDS011;26405;51.850;-2.246;2023-03-04T01:27:36;20.77;;;9.30;;
40717;SDS011;26405;51.850;-2.246;2023-03-04T01:30:02;19.30;;;8.95;;
40717;SDS011;26405;51.850;-2.246;2023-03-04T01:32:27;21.70;;;8.70;;
40717;SDS011;26405;51.850;-2.246;2023-03-04T01:34:53;20.42;;;7.63;;
40717;SDS011;26405;51.850;-2.246;2023-03-04T01:37:18;19.52;;;8.65;;
40717;SDS011;26405;51.850;-2.246;2023-03-04T01:39:43;19.50;;;8.10;;
40717;SDS011;26405;51.850;-2.246;2023-03-04T01:42:12;18.65;;;7.43;;
40717;SDS011;26405;51.850;-2.246;2023-03-04T01:44:40;18.75;;;7.78;;
40717;SDS011;26405;51.850;-2.246;2023-03-04T01:47:07;18.38;;;7.10;;
40717;SDS011;26405;51.850;-2.246;2023-03-04T01:49:33;17.40;;;6.50;;
40717;SDS011;26405;51.850;-2.246;2023-03-04T01:51:58;18.95;;;7.15;;
40717;SDS011;26405;51.850;-2.246;2023-03-04T01:54:23;18.70;;;6.68;;
40717;SDS011;26405;51.850;-2.246;2023-03-04T01:56:49;16.50;;;6.00;;
40717;SDS011;26405;51.850;-2.246;2023-03-04T01:59:19;17.75;;;6.53;;
40717;SDS011;26405;51.850;-2.246;2023-03-04T02:01:45;16.02;;;5.72;;
40717;SDS011;26405;51.850;-2.246;2023-03-04T02:04:11;16.48;;;5.72;;
40717;SDS011;26405;51.850;-2.246;2023-03-04T02:06:37;18.48;;;5.97;;
40717;SDS011;26405;51.850;-2.246;2023-03-04T02:09:03;13.73;;;5.37;;
40717;SDS011;26405;51.850;-2.246;2023-03-04T02:11:29;16.35;;;6.30;;
40717;SDS011;26405;51.850;-2.246;2023-03-04T02:13:54;16.70;;;5.65;;
40717;SDS011;26405;51.850;-2.246;2023-03-04T02:16:20;15.70;;;5.90;;
40717;SDS011;26405;51.850;-2.246;2023-03-04T02:18:45;14.25;;;5.22;;
40717;SDS011;26405;51.850;-2.246;2023-03-04T02:21:24;14.27;;;5.13;;
40717;SDS011;26405;51.850;-2.246;2023-03-04T02:26:27;16.92;;;5.68;;
40717;SDS011;26405;51.850;-2.246;2023-03-04T02:28:54;17.55;;;5.30;;
40717;SDS011;26405;51.850;-2.246;2023-03-04T02:33:45;16.37;;;5.47;;
40717;SDS011;26405;51.850;-2.246;2023-03-04T02:36:10;19.35;;;6.07;;
40717;SDS011;26405;51.850;-2.246;2023-03-04T02:38:36;13.68;;;4.70;;
40717;SDS011;26405;51.850;-2.246;2023-03-04T02:41:01;14.15;;;4.93;;
40717;SDS011;26405;51.850;-2.246;2023-03-04T02:43:27;17.48;;;4.72;;
40717;SDS011;26405;51.850;-2.246;2023-03-04T02:45:52;15.85;;;4.97;;
40717;SDS011;26405;51.850;-2.246;2023-03-04T02:48:19;13.32;;;4.57;;
40717;SDS011;26405;51.850;-2.246;2023-03-04T02:50:46;22.92;;;5.30;;
40717;SDS011;26405;51.850;-2.246;2023-03-04T02:53:12;13.55;;;4.95;;
40717;SDS011;26405;51.850;-2.246;2023-03-04T02:55:37;13.43;;;4.78;;
40717;SDS011;26405;51.850;-2.246;2023-03-04T02:58:02;13.68;;;4.85;;
40717;SDS011;26405;51.850;-2.246;2023-03-04T03:00:28;14.82;;;5.20;;
40717;SDS011;26405;51.850;-2.246;2023-03-04T03:02:53;18.60;;;5.57;;
40717;SDS011;26405;51.850;-2.246;2023-03-04T03:05:21;14.70;;;5.38;;
40717;SDS011;26405;51.850;-2.246;2023-03-04T03:07:46;13.65;;;5.05;;
40717;SDS011;26405;51.850;-2.246;2023-03-04T03:10:11;16.90;;;5.60;;
40717;SDS011;26405;51.850;-2.246;2023-03-04T03:12:37;17.27;;;5.40;;
40717;SDS011;26405;51.850;-2.246;2023-03-04T03:15:02;16.35;;;5.30;;
40717;SDS011;26405;51.850;-2.246;2023-03-04T03:17:28;19.60;;;5.53;;
40717;SDS011;26405;51.850;-2.246;2023-03-04T03:19:53;19.20;;;6.38;;
40717;SDS011;26405;51.850;-2.246;2023-03-04T03:22:21;17.80;;;6.28;;
40717;SDS011;26405;51.850;-2.246;2023-03-04T03:24:47;17.98;;;5.85;;
40717;SDS011;26405;51.850;-2.246;2023-03-04T03:27:12;15.73;;;5.95;;
40717;SDS011;26405;51.850;-2.246;2023-03-04T03:29:37;15.85;;;6.22;;
40717;SDS011;26405;51.850;-2.246;2023-03-04T03:32:03;15.48;;;5.88;;
40717;SDS011;26405;51.850;-2.246;2023-03-04T03:34:28;18.67;;;6.03;;
40717;SDS011;26405;51.850;-2.246;2023-03-04T03:36:54;17.95;;;5.88;;
40717;SDS011;26405;51.850;-2.246;2023-03-04T03:39:19;16.75;;;6.10;;
40717;SDS011;26405;51.850;-2.246;2023-03-04T03:41:45;18.50;;;6.35;;
40717;SDS011;26405;51.850;-2.246;2023-03-04T03:44:10;14.43;;;5.78;;
40717;SDS011;26405;51.850;-2.246;2023-03-04T03:46:38;21.73;;;6.75;;
40717;SDS011;26405;51.850;-2.246;2023-03-04T03:49:04;16.48;;;5.88;;
40717;SDS011;26405;51.850;-2.246;2023-03-04T03:51:29;15.93;;;5.95;;
40717;SDS011;26405;51.850;-2.246;2023-03-04T03:53:54;18.13;;;5.88;;
40717;SDS011;26405;51.850;-2.246;2023-03-04T03:56:20;17.38;;;6.35;;
40717;SDS011;26405;51.850;-2.246;2023-03-04T03:58:45;18.15;;;6.57;;
40717;SDS011;26405;51.850;-2.246;2023-03-04T04:01:10;15.32;;;6.15;;
40717;SDS011;26405;51.850;-2.246;2023-03-04T04:03:35;15.18;;;6.18;;
40717;SDS011;26405;51.850;-2.246;2023-03-04T04:06:01;16.45;;;6.47;;
40717;SDS011;26405;51.850;-2.246;2023-03-04T04:08:26;14.90;;;5.88;;
40717;SDS011;26405;51.850;-2.246;2023-03-04T04:10:52;17.90;;;5.68;;
40717;SDS011;26405;51.850;-2.246;2023-03-04T04:13:17;15.60;;;5.20;;
40717;SDS011;26405;51.850;-2.246;2023-03-04T04:15:42;13.68;;;4.80;;
40717;SDS011;26405;51.850;-2.246;2023-03-04T04:18:08;15.75;;;4.90;;
40717;SDS011;26405;51.850;-2.246;2023-03-04T04:20:33;14.45;;;4.70;;
40717;SDS011;26405;51.850;-2.246;2023-03-04T04:22:59;16.33;;;5.03;;
40717;SDS011;26405;51.850;-2.246;2023-03-04T04:25:24;11.95;;;4.45;;
40717;SDS011;26405;51.850;-2.246;2023-03-04T04:27:49;11.82;;;4.10;;
40717;SDS011;26405;51.850;-2.246;2023-03-04T04:30:15;12.45;;;4.63;;
40717;SDS011;26405;51.850;-2.246;2023-03-04T04:32:40;14.38;;;4.85;;
40717;SDS011;26405;51.850;-2.246;2023-03-04T04:35:06;13.63;;;4.60;;
40717;SDS011;26405;51.850;-2.246;2023-03-04T04:37:31;15.55;;;4.07;;
40717;SDS011;26405;51.850;-2.246;2023-03-04T04:39:57;11.57;;;3.97;;
40717;SDS011;26405;51.850;-2.246;2023-03-04T04:42:22;12.57;;;3.80;;
40717;SDS011;26405;51.850;-2.246;2023-03-04T04:44:47;13.13;;;3.88;;
40717;SDS011;26405;51.850;-2.246;2023-03-04T04:47:13;13.00;;;3.70;;
40717;SDS011;26405;51.850;-2.246;2023-03-04T04:49:38;11.93;;;3.78;;
40717;SDS011;26405;51.850;-2.246;2023-03-04T04:52:03;12.20;;;3.83;;
40717;SDS011;26405;51.850;-2.246;2023-03-04T04:54:29;11.93;;;3.80;;
40717;SDS011;26405;51.850;-2.246;2023-03-04T04:56:54;13.68;;;3.45;;
40717;SDS011;26405;51.850;-2.246;2023-03-04T04:59:19;13.00;;;3.45;;
40717;SDS011;26405;51.850;-2.246;2023-03-04T05:01:44;13.48;;;4.05;;
40717;SDS011;26405;51.850;-2.246;2023-03-04T05:04:10;12.35;;;4.05;;
40717;SDS011;26405;51.850;-2.246;2023-03-04T05:06:35;11.63;;;3.67;;
40717;SDS011;26405;51.850;-2.246;2023-03-04T05:09:00;12.27;;;3.42;;
40717;SDS011;26405;51.850;-2.246;2023-03-04T05:11:26;15.23;;;3.53;;
40717;SDS011;26405;51.850;-2.246;2023-03-04T05:13:51;11.02;;;3.80;;
40717;SDS011;26405;51.850;-2.246;2023-03-04T05:16:16;12.82;;;3.38;;
40717;SDS011;26405;51.850;-2.246;2023-03-04T05:18:42;13.32;;;3.05;;
40717;SDS011;26405;51.850;-2.246;2023-03-04T05:21:07;13.70;;;3.58;;
40717;SDS011;26405;51.850;-2.246;2023-03-04T05:23:34;12.05;;;3.40;;
40717;SDS011;26405;51.850;-2.246;2023-03-04T05:26:00;13.55;;;3.90;;
40717;SDS011;26405;51.850;-2.246;2023-03-04T05:28:25;15.43;;;3.90;;
40717;SDS011;26405;51.850;-2.246;2023-03-04T05:30:51;11.15;;;3.47;;
40717;SDS011;26405;51.850;-2.246;2023-03-04T05:33:16;9.25;;;3.53;;
40717;SDS011;26405;51.850;-2.246;2023-03-04T05:35:42;14.00;;;3.70;;
40717;SDS011;26405;51.850;-2.246;2023-03-04T05:38:09;13.27;;;3.55;;
40717;SDS011;26405;51.850;-2.246;2023-03-04T05:40:35;9.95;;;3.25;;
40717;SDS011;26405;51.850;-2.246;2023-03-04T05:43:00;11.68;;;3.80;;
40717;SDS011;26405;51.850;-2.246;2023-03-04T05:45:25;12.32;;;3.60;;
40717;SDS011;26405;51.850;-2.246;2023-03-04T05:47:51;9.80;;;3.22;;
40717;SDS011;26405;51.850;-2.246;2023-03-04T05:50:17;12.10;;;3.42;;
40717;SDS011;26405;51.850;-2.246;2023-03-04T05:52:42;10.15;;;3.70;;
40717;SDS011;26405;51.850;-2.246;2023-03-04T05:55:08;10.77;;;3.40;;
40717;SDS011;26405;51.850;-2.246;2023-03-04T05:57:33;15.38;;;4.10;;
40717;SDS011;26405;51.850;-2.246;2023-03-04T05:59:58;12.65;;;3.50;;
40717;SDS011;26405;51.850;-2.246;2023-03-04T06:02:24;10.20;;;3.78;;
40717;SDS011;26405;51.850;-2.246;2023-03-04T06:04:49;13.32;;;3.47;;
40717;SDS011;26405;51.850;-2.246;2023-03-04T06:07:14;12.65;;;3.40;;
40717;SDS011;26405;51.850;-2.246;2023-03-04T06:09:40;11.25;;;3.85;;
40717;SDS011;26405;51.850;-2.246;2023-03-04T06:12:05;13.10;;;3.90;;
40717;SDS011;26405;51.850;-2.246;2023-03-04T06:14:30;13.88;;;3.85;;
40717;SDS011;26405;51.850;-2.246;2023-03-04T06:16:56;11.68;;;3.63;;
40717;SDS011;26405;51.850;-2.246;2023-03-04T06:19:21;12.25;;;4.03;;
40717;SDS011;26405;51.850;-2.246;2023-03-04T06:21:46;12.70;;;3.72;;
40717;SDS011;26405;51.850;-2.246;2023-03-04T06:24:12;15.25;;;3.85;;
40717;SDS011;26405;51.850;-2.246;2023-03-04T06:26:37;16.58;;;4.00;;
40717;SDS011;26405;51.850;-2.246;2023-03-04T06:29:03;12.48;;;3.40;;
40717;SDS011;26405;51.850;-2.246;2023-03-04T06:31:28;13.88;;;3.95;;
40717;SDS011;26405;51.850;-2.246;2023-03-04T06:33:54;10.90;;;3.88;;
40717;SDS011;26405;51.850;-2.246;2023-03-04T06:36:19;11.23;;;3.90;;
40717;SDS011;26405;51.850;-2.246;2023-03-04T06:38:44;12.20;;;4.25;;
40717;SDS011;26405;51.850;-2.246;2023-03-04T06:41:10;14.75;;;4.20;;
40717;SDS011;26405;51.850;-2.246;2023-03-04T06:43:36;12.75;;;4.50;;
40717;SDS011;26405;51.850;-2.246;2023-03-04T06:46:02;11.77;;;4.47;;
40717;SDS011;26405;51.850;-2.246;2023-03-04T06:48:27;16.58;;;4.63;;
40717;SDS011;26405;51.850;-2.246;2023-03-04T06:50:53;17.50;;;5.57;;
40717;SDS011;26405;51.850;-2.246;2023-03-04T06:53:20;12.93;;;5.20;;
40717;SDS011;26405;51.850;-2.246;2023-03-04T06:55:46;18.75;;;5.57;;
40717;SDS011;26405;51.850;-2.246;2023-03-04T06:58:11;16.08;;;5.78;;
40717;SDS011;26405;51.850;-2.246;2023-03-04T07:00:37;14.93;;;5.65;;
40717;SDS011;26405;51.850;-2.246;2023-03-04T07:03:02;15.38;;;5.88;;
40717;SDS011;26405;51.850;-2.246;2023-03-04T07:05:27;17.17;;;6.28;;
40717;SDS011;26405;51.850;-2.246;2023-03-04T07:07:52;16.58;;;6.53;;
40717;SDS011;26405;51.850;-2.246;2023-03-04T07:10:18;17.35;;;5.97;;
40717;SDS011;26405;51.850;-2.246;2023-03-04T07:12:43;13.90;;;5.85;;
40717;SDS011;26405;51.850;-2.246;2023-03-04T07:15:09;14.57;;;5.72;;
40717;SDS011;26405;51.850;-2.246;2023-03-04T07:17:34;14.98;;;5.97;;
40717;SDS011;26405;51.850;-2.246;2023-03-04T07:19:59;17.38;;;6.22;;
40717;SDS011;26405;51.850;-2.246;2023-03-04T07:22:25;15.73;;;6.03;;
40717;SDS011;26405;51.850;-2.246;2023-03-04T07:24:50;15.45;;;5.10;;
40717;SDS011;26405;51.850;-2.246;2023-03-04T07:27:15;14.27;;;5.35;;
40717;SDS011;26405;51.850;-2.246;2023-03-04T07:29:41;15.18;;;4.70;;
40717;SDS011;26405;51.850;-2.246;2023-03-04T07:32:06;14.75;;;5.10;;
40717;SDS011;26405;51.850;-2.246;2023-03-04T07:34:32;14.15;;;4.90;;
40717;SDS011;26405;51.850;-2.246;2023-03-04T07:36:57;15.73;;;5.15;;
40717;SDS011;26405;51.850;-2.246;2023-03-04T07:39:23;15.00;;;4.75;;
40717;SDS011;26405;51.850;-2.246;2023-03-04T07:41:48;14.55;;;5.45;;
40717;SDS011;26405;51.850;-2.246;2023-03-04T07:44:13;17.75;;;4.93;;
40717;SDS011;26405;51.850;-2.246;2023-03-04T07:46:39;15.80;;;5.20;;
40717;SDS011;26405;51.850;-2.246;2023-03-04T07:49:04;15.38;;;5.35;;
40717;SDS011;26405;51.850;-2.246;2023-03-04T07:51:29;15.52;;;5.15;;
40717;SDS011;26405;51.850;-2.246;2023-03-04T07:53:56;14.60;;;5.40;;
40717;SDS011;26405;51.850;-2.246;2023-03-04T07:56:25;12.77;;;4.70;;
40717;SDS011;26405;51.850;-2.246;2023-03-04T07:58:51;15.93;;;5.20;;
40717;SDS011;26405;51.850;-2.246;2023-03-04T08:01:24;17.45;;;5.00;;
40717;SDS011;26405;51.850;-2.246;2023-03-04T08:03:50;12.90;;;4.90;;
40717;SDS011;26405;51.850;-2.246;2023-03-04T08:06:16;13.98;;;4.85;;
40717;SDS011;26405;51.850;-2.246;2023-03-04T08:08:41;15.00;;;5.07;;
40717;SDS011;26405;51.850;-2.246;2023-03-04T08:11:14;11.02;;;4.40;;
40717;SDS011;26405;51.850;-2.246;2023-03-04T08:13:39;13.30;;;4.63;;
40717;SDS011;26405;51.850;-2.246;2023-03-04T08:16:05;15.57;;;4.50;;
40717;SDS011;26405;51.850;-2.246;2023-03-04T08:18:30;14.68;;;4.05;;
40717;SDS011;26405;51.850;-2.246;2023-03-04T08:20:55;14.30;;;4.50;;
40717;SDS011;26405;51.850;-2.246;2023-03-04T08:23:21;14.50;;;4.30;;
40717;SDS011;26405;51.850;-2.246;2023-03-04T08:25:46;15.93;;;4.45;;
40717;SDS011;26405;51.850;-2.246;2023-03-04T08:28:12;12.98;;;4.22;;
40717;SDS011;26405;51.850;-2.246;2023-03-04T08:30:37;16.65;;;4.55;;
40717;SDS011;26405;51.850;-2.246;2023-03-04T08:33:03;13.27;;;4.45;;
40717;SDS011;26405;51.850;-2.246;2023-03-04T08:35:29;12.85;;;4.47;;
40717;SDS011;26405;51.850;-2.246;2023-03-04T08:37:54;13.00;;;4.13;;
40717;SDS011;26405;51.850;-2.246;2023-03-04T08:40:19;12.10;;;4.55;;
40717;SDS011;26405;51.850;-2.246;2023-03-04T08:42:44;14.70;;;4.85;;
40717;SDS011;26405;51.850;-2.246;2023-03-04T08:45:10;13.80;;;5.10;;
40717;SDS011;26405;51.850;-2.246;2023-03-04T08:47:35;14.50;;;4.50;;
40717;SDS011;26405;51.850;-2.246;2023-03-04T08:50:01;16.58;;;6.60;;
40717;SDS011;26405;51.850;-2.246;2023-03-04T08:52:27;17.88;;;6.15;;
40717;SDS011;26405;51.850;-2.246;2023-03-04T08:54:52;17.20;;;5.55;;
40717;SDS011;26405;51.850;-2.246;2023-03-04T08:57:18;17.55;;;5.47;;
40717;SDS011;26405;51.850;-2.246;2023-03-04T08:59:43;16.00;;;5.53;;
40717;SDS011;26405;51.850;-2.246;2023-03-04T09:02:08;18.08;;;5.78;;
40717;SDS011;26405;51.850;-2.246;2023-03-04T09:04:34;14.57;;;6.07;;
40717;SDS011;26405;51.850;-2.246;2023-03-04T09:06:59;16.73;;;6.05;;
40717;SDS011;26405;51.850;-2.246;2023-03-04T09:09:24;12.98;;;5.38;;
40717;SDS011;26405;51.850;-2.246;2023-03-04T09:11:49;14.93;;;6.55;;
40717;SDS011;26405;51.850;-2.246;2023-03-04T09:14:15;15.90;;;6.03;;
40717;SDS011;26405;51.850;-2.246;2023-03-04T09:16:40;16.10;;;5.72;;
40717;SDS011;26405;51.850;-2.246;2023-03-04T09:19:05;17.23;;;6.45;;
40717;SDS011;26405;51.850;-2.246;2023-03-04T09:21:30;16.38;;;6.10;;
40717;SDS011;26405;51.850;-2.246;2023-03-04T09:23:56;15.40;;;5.80;;
40717;SDS011;26405;51.850;-2.246;2023-03-04T09:26:22;16.05;;;6.18;;
40717;SDS011;26405;51.850;-2.246;2023-03-04T09:28:49;15.82;;;6.20;;
40717;SDS011;26405;51.850;-2.246;2023-03-04T09:31:14;15.68;;;6.50;;
40717;SDS011;26405;51.850;-2.246;2023-03-04T09:33:39;18.02;;;6.75;;
40717;SDS011;26405;51.850;-2.246;2023-03-04T09:36:07;14.00;;;6.20;;
40717;SDS011;26405;51.850;-2.246;2023-03-04T09:38:32;13.90;;;6.10;;
40717;SDS011;26405;51.850;-2.246;2023-03-04T09:40:58;13.38;;;5.65;;
40717;SDS011;26405;51.850;-2.246;2023-03-04T09:43:27;13.35;;;5.57;;
40717;SDS011;26405;51.850;-2.246;2023-03-04T09:45:57;17.87;;;5.77;;
40717;SDS011;26405;51.850;-2.246;2023-03-04T09:48:25;18.67;;;6.72;;
40717;SDS011;26405;51.850;-2.246;2023-03-04T09:53:24;12.70;;;5.20;;
40717;SDS011;26405;51.850;-2.246;2023-03-04T09:55:53;16.65;;;5.60;;
40717;SDS011;26405;51.850;-2.246;2023-03-04T09:58:27;20.70;;;5.95;;
40717;SDS011;26405;51.850;-2.246;2023-03-04T10:00:57;18.40;;;6.13;;
40717;SDS011;26405;51.850;-2.246;2023-03-04T10:06:01;14.07;;;5.35;;
40717;SDS011;26405;51.850;-2.246;2023-03-04T10:08:41;15.10;;;5.72;;
40717;SDS011;26405;51.850;-2.246;2023-03-04T10:11:10;16.23;;;5.78;;
40717;SDS011;26405;51.850;-2.246;2023-03-04T10:13:49;13.88;;;5.95;;
40717;SDS011;26405;51.850;-2.246;2023-03-04T10:16:17;13.15;;;4.95;;
40717;SDS011;26405;51.850;-2.246;2023-03-04T10:18:55;18.30;;;5.65;;
40717;SDS011;26405;51.850;-2.246;2023-03-04T10:21:22;13.75;;;5.35;;
40717;SDS011;26405;51.850;-2.246;2023-03-04T10:23:48;16.83;;;5.57;;
40717;SDS011;26405;51.850;-2.246;2023-03-04T10:26:15;11.88;;;5.50;;
40717;SDS011;26405;51.850;-2.246;2023-03-04T10:28:42;16.25;;;5.40;;
40717;SDS011;26405;51.850;-2.246;2023-03-04T10:33:33;15.35;;;5.55;;
40717;SDS011;26405;51.850;-2.246;2023-03-04T10:38:31;14.50;;;4.53;;
40717;SDS011;26405;51.850;-2.246;2023-03-04T10:40:57;13.18;;;5.18;;
40717;SDS011;26405;51.850;-2.246;2023-03-04T10:43:23;16.52;;;5.28;;
40717;SDS011;26405;51.850;-2.246;2023-03-04T10:45:48;14.02;;;5.30;;
40717;SDS011;26405;51.850;-2.246;2023-03-04T10:48:19;14.77;;;5.20;;
40717;SDS011;26405;51.850;-2.246;2023-03-04T10:50:45;16.83;;;5.38;;
40717;SDS011;26405;51.850;-2.246;2023-03-04T10:55:48;16.85;;;5.55;;
40717;SDS011;26405;51.850;-2.246;2023-03-04T10:58:14;15.10;;;5.35;;
40717;SDS011;26405;51.850;-2.246;2023-03-04T11:00:40;12.70;;;5.32;;
40717;SDS011;26405;51.850;-2.246;2023-03-04T11:03:22;14.38;;;5.40;;
40717;SDS011;26405;51.850;-2.246;2023-03-04T11:05:48;15.68;;;5.30;;
40717;SDS011;26405;51.850;-2.246;2023-03-04T11:08:17;14.82;;;5.43;;
40717;SDS011;26405;51.850;-2.246;2023-03-04T11:10:43;15.00;;;4.90;;
40717;SDS011;26405;51.850;-2.246;2023-03-04T11:13:12;16.05;;;5.45;;
40717;SDS011;26405;51.850;-2.246;2023-03-04T11:15:49;16.73;;;5.20;;
40717;SDS011;26405;51.850;-2.246;2023-03-04T11:18:15;14.63;;;5.32;;
40717;SDS011;26405;51.850;-2.246;2023-03-04T11:20:41;13.07;;;4.88;;
40717;SDS011;26405;51.850;-2.246;2023-03-04T11:23:11;13.97;;;4.90;;
40717;SDS011;26405;51.850;-2.246;2023-03-04T11:25:49;16.60;;;5.18;;
40717;SDS011;26405;51.850;-2.246;2023-03-04T11:28:23;12.73;;;4.93;;
40717;SDS011;26405;51.850;-2.246;2023-03-04T11:30:54;16.90;;;5.70;;
40717;SDS011;26405;51.850;-2.246;2023-03-04T11:33:21;15.43;;;5.30;;
40717;SDS011;26405;51.850;-2.246;2023-03-04T11:38:31;17.80;;;6.03;;
40717;SDS011;26405;51.850;-2.246;2023-03-04T11:40:58;15.15;;;5.38;;
40717;SDS011;26405;51.850;-2.246;2023-03-04T11:43:27;18.58;;;6.15;;
40717;SDS011;26405;51.850;-2.246;2023-03-04T11:46:01;18.10;;;5.82;;
40717;SDS011;26405;51.850;-2.246;2023-03-04T11:48:38;20.48;;;6.53;;
40717;SDS011;26405;51.850;-2.246;2023-03-04T11:54:00;15.75;;;6.43;;
40717;SDS011;26405;51.850;-2.246;2023-03-04T11:56:49;17.52;;;6.88;;
40717;SDS011;26405;51.850;-2.246;2023-03-04T12:14:37;16.15;;;7.15;;
40717;SDS011;26405;51.850;-2.246;2023-03-04T12:17:19;19.08;;;7.50;;
40717;SDS011;26405;51.850;-2.246;2023-03-04T12:35:44;17.63;;;6.65;;
40717;SDS011;26405;51.850;-2.246;2023-03-04T12:41:03;16.90;;;6.53;;
40717;SDS011;26405;51.850;-2.246;2023-03-04T12:48:35;19.75;;;7.40;;
40717;SDS011;26405;51.850;-2.246;2023-03-04T12:55:58;19.55;;;7.28;;
40717;SDS011;26405;51.850;-2.246;2023-03-04T12:58:29;17.50;;;7.22;;
40717;SDS011;26405;51.850;-2.246;2023-03-04T13:03:38;20.45;;;7.35;;
40717;SDS011;26405;51.850;-2.246;2023-03-04T13:17:00;19.13;;;6.70;;
40717;SDS011;26405;51.850;-2.246;2023-03-04T13:22:23;17.77;;;6.72;;
40717;SDS011;26405;51.850;-2.246;2023-03-04T13:24:48;18.17;;;6.75;;
40717;SDS011;26405;51.850;-2.246;2023-03-04T13:30:00;19.13;;;6.22;;
40717;SDS011;26405;51.850;-2.246;2023-03-04T13:32:34;16.70;;;6.00;;
40717;SDS011;26405;51.850;-2.246;2023-03-04T13:34:59;16.90;;;6.18;;
40717;SDS011;26405;51.850;-2.246;2023-03-04T13:40:03;12.30;;;5.78;;
40717;SDS011;26405;51.850;-2.246;2023-03-04T13:42:41;14.98;;;6.40;;
40717;SDS011;26405;51.850;-2.246;2023-03-04T13:47:51;15.07;;;5.88;;
40717;SDS011;26405;51.850;-2.246;2023-03-04T13:50:23;18.20;;;5.93;;
40717;SDS011;26405;51.850;-2.246;2023-03-04T13:52:51;19.95;;;6.10;;
40717;SDS011;26405;51.850;-2.246;2023-03-04T13:55:29;18.85;;;6.18;;
40717;SDS011;26405;51.850;-2.246;2023-03-04T13:57:54;16.90;;;6.20;;
40717;SDS011;26405;51.850;-2.246;2023-03-04T14:00:20;15.73;;;6.15;;
40717;SDS011;26405;51.850;-2.246;2023-03-04T14:02:45;17.23;;;5.40;;
40717;SDS011;26405;51.850;-2.246;2023-03-04T14:05:11;15.35;;;5.18;;
40717;SDS011;26405;51.850;-2.246;2023-03-04T14:07:36;14.45;;;5.22;;
40717;SDS011;26405;51.850;-2.246;2023-03-04T14:10:06;16.27;;;6.07;;
40717;SDS011;26405;51.850;-2.246;2023-03-04T14:15:23;16.80;;;5.22;;
40717;SDS011;26405;51.850;-2.246;2023-03-04T14:17:50;17.15;;;5.13;;
40717;SDS011;26405;51.850;-2.246;2023-03-04T14:20:28;19.58;;;5.70;;
40717;SDS011;26405;51.850;-2.246;2023-03-04T14:22:54;16.67;;;5.40;;
40717;SDS011;26405;51.850;-2.246;2023-03-04T14:25:27;16.85;;;5.43;;
40717;SDS011;26405;51.850;-2.246;2023-03-04T14:28:15;16.33;;;5.13;;
40717;SDS011;26405;51.850;-2.246;2023-03-04T14:30:41;13.85;;;4.68;;
40717;SDS011;26405;51.850;-2.246;2023-03-04T14:33:07;16.17;;;4.90;;
40717;SDS011;26405;51.850;-2.246;2023-03-04T14:35:33;15.63;;;5.60;;
40717;SDS011;26405;51.850;-2.246;2023-03-04T14:38:14;18.05;;;6.20;;
40717;SDS011;26405;51.850;-2.246;2023-03-04T14:40:43;17.95;;;4.75;;
40717;SDS011;26405;51.850;-2.246;2023-03-04T14:43:11;15.75;;;5.03;;
40717;SDS011;26405;51.850;-2.246;2023-03-04T14:45:41;13.77;;;4.97;;
40717;SDS011;26405;51.850;-2.246;2023-03-04T14:48:07;16.13;;;4.82;;
40717;SDS011;26405;51.850;-2.246;2023-03-04T14:50:32;13.88;;;4.97;;
40717;SDS011;26405;51.850;-2.246;2023-03-04T14:55:32;14.57;;;4.78;;
40717;SDS011;26405;51.850;-2.246;2023-03-04T15:00:41;14.75;;;5.38;;
40717;SDS011;26405;51.850;-2.246;2023-03-04T15:05:33;16.67;;;5.10;;
40717;SDS011;26405;51.850;-2.246;2023-03-04T15:08:00;15.93;;;5.20;;
40717;SDS011;26405;51.850;-2.246;2023-03-04T15:10:27;15.65;;;5.07;;
40717;SDS011;26405;51.850;-2.246;2023-03-04T15:12:54;17.35;;;5.22;;
40717;SDS011;26405;51.850;-2.246;2023-03-04T15:15:31;14.57;;;5.07;;
40717;SDS011;26405;51.850;-2.246;2023-03-04T15:17:57;19.42;;;6.43;;
40717;SDS011;26405;51.850;-2.246;2023-03-04T15:20:28;17.35;;;5.18;;
40717;SDS011;26405;51.850;-2.246;2023-03-04T15:22:57;16.17;;;5.03;;
40717;SDS011;26405;51.850;-2.246;2023-03-04T15:25:23;16.40;;;5.35;;
40717;SDS011;26405;51.850;-2.246;2023-03-04T15:27:49;14.27;;;5.10;;
40717;SDS011;26405;51.850;-2.246;2023-03-04T15:30:15;15.18;;;4.88;;
40717;SDS011;26405;51.850;-2.246;2023-03-04T15:32:41;15.77;;;4.82;;
40717;SDS011;26405;51.850;-2.246;2023-03-04T15:35:14;16.60;;;4.90;;
40717;SDS011;26405;51.850;-2.246;2023-03-04T15:37:39;14.52;;;5.47;;
40717;SDS011;26405;51.850;-2.246;2023-03-04T15:40:12;17.73;;;5.22;;
40717;SDS011;26405;51.850;-2.246;2023-03-04T15:42:38;15.55;;;5.57;;
40717;SDS011;26405;51.850;-2.246;2023-03-04T15:47:50;14.20;;;5.07;;
40717;SDS011;26405;51.850;-2.246;2023-03-04T15:50:16;15.57;;;5.05;;
40717;SDS011;26405;51.850;-2.246;2023-03-04T15:52:41;15.27;;;5.43;;
40717;SDS011;26405;51.850;-2.246;2023-03-04T15:55:09;14.63;;;5.20;;
40717;SDS011;26405;51.850;-2.246;2023-03-04T15:57:35;14.45;;;5.15;;
40717;SDS011;26405;51.850;-2.246;2023-03-04T16:00:00;16.67;;;5.80;;
40717;SDS011;26405;51.850;-2.246;2023-03-04T16:02:25;16.60;;;5.47;;